sensor_id;sensor_type;location;lat;lon;timestamp;P1;durP1;ratioP1;P2;durP2;ratioP2
66169;SDS011;66757;44.024;20.456;2023-04-16T00:00:05;51.03;;;27.55;;
66169;SDS011;66757;44.024;20.456;2023-04-16T00:02:30;52.58;;;27.42;;
66169;SDS011;66757;44.024;20.456;2023-04-16T00:04:56;54.25;;;28.17;;
66169;SDS011;66757;44.024;20.456;2023-04-16T00:07:21;54.67;;;30.58;;
66169;SDS011;66757;44.024;20.456;2023-04-16T00:09:47;56.00;;;28.83;;
66169;SDS011;66757;44.024;20.456;2023-04-16T00:12:12;62.05;;;30.02;;
66169;SDS011;66757;44.024;20.456;2023-04-16T00:14:37;49.15;;;26.42;;
66169;SDS011;66757;44.024;20.456;2023-04-16T00:17:02;42.22;;;24.35;;
66169;SDS011;66757;44.024;20.456;2023-04-16T00:19:28;43.22;;;21.50;;
66169;SDS011;66757;44.024;20.456;2023-04-16T00:21:53;40.13;;;21.83;;
66169;SDS011;66757;44.024;20.456;2023-04-16T00:24:18;37.55;;;20.75;;
66169;SDS011;66757;44.024;20.456;2023-04-16T00:26:44;42.05;;;21.17;;
66169;SDS011;66757;44.024;20.456;2023-04-16T00:29:10;38.67;;;20.40;;
66169;SDS011;66757;44.024;20.456;2023-04-16T00:31:36;44.13;;;21.65;;
66169;SDS011;66757;44.024;20.456;2023-04-16T00:34:01;45.92;;;23.35;;
66169;SDS011;66757;44.024;20.456;2023-04-16T00:36:26;73.05;;;37.35;;
66169;SDS011;66757;44.024;20.456;2023-04-16T00:38:52;67.30;;;37.05;;
66169;SDS011;66757;44.024;20.456;2023-04-16T00:41:18;57.85;;;31.45;;
66169;SDS011;66757;44.024;20.456;2023-04-16T00:43:47;56.08;;;31.15;;
66169;SDS011;66757;44.024;20.456;2023-04-16T00:46:15;56.50;;;29.75;;
66169;SDS011;66757;44.024;20.456;2023-04-16T00:48:40;48.15;;;27.27;;
66169;SDS011;66757;44.024;20.456;2023-04-16T00:51:07;38.95;;;20.98;;
66169;SDS011;66757;44.024;20.456;2023-04-16T00:53:32;32.33;;;17.60;;
66169;SDS011;66757;44.024;20.456;2023-04-16T00:55:58;29.52;;;15.48;;
66169;SDS011;66757;44.024;20.456;2023-04-16T00:58:24;34.95;;;15.18;;
66169;SDS011;66757;44.024;20.456;2023-04-16T01:00:49;23.40;;;13.65;;
66169;SDS011;66757;44.024;20.456;2023-04-16T01:03:16;26.33;;;13.60;;
66169;SDS011;66757;44.024;20.456;2023-04-16T01:05:42;22.23;;;12.63;;
66169;SDS011;66757;44.024;20.456;2023-04-16T01:08:14;41.85;;;22.00;;
66169;SDS011;66757;44.024;20.456;2023-04-16T01:10:39;45.38;;;23.48;;
66169;SDS011;66757;44.024;20.456;2023-04-16T01:13:05;44.95;;;22.67;;
66169;SDS011;66757;44.024;20.456;2023-04-16T01:15:30;51.45;;;24.75;;
66169;SDS011;66757;44.024;20.456;2023-04-16T01:17:55;45.42;;;23.25;;
66169;SDS011;66757;44.024;20.456;2023-04-16T01:20:21;44.65;;;22.85;;
66169;SDS011;66757;44.024;20.456;2023-04-16T01:22:46;50.97;;;25.52;;
66169;SDS011;66757;44.024;20.456;2023-04-16T01:25:14;46.92;;;24.85;;
66169;SDS011;66757;44.024;20.456;2023-04-16T01:27:40;48.45;;;24.02;;
66169;SDS011;66757;44.024;20.456;2023-04-16T01:30:05;50.15;;;26.00;;
66169;SDS011;66757;44.024;20.456;2023-04-16T01:32:32;51.38;;;27.45;;
66169;SDS011;66757;44.024;20.456;2023-04-16T01:34:57;50.95;;;27.55;;
66169;SDS011;66757;44.024;20.456;2023-04-16T01:37:23;45.90;;;26.17;;
66169;SDS011;66757;44.024;20.456;2023-04-16T01:39:51;49.53;;;25.33;;
66169;SDS011;66757;44.024;20.456;2023-04-16T01:42:16;52.88;;;27.17;;
66169;SDS011;66757;44.024;20.456;2023-04-16T01:44:43;54.25;;;28.58;;
66169;SDS011;66757;44.024;20.456;2023-04-16T01:47:09;51.53;;;24.13;;
66169;SDS011;66757;44.024;20.456;2023-04-16T01:49:34;39.03;;;19.60;;
66169;SDS011;66757;44.024;20.456;2023-04-16T01:52:00;36.55;;;18.45;;
66169;SDS011;66757;44.024;20.456;2023-04-16T01:54:25;29.30;;;17.08;;
66169;SDS011;66757;44.024;20.456;2023-04-16T01:56:51;36.22;;;17.75;;
66169;SDS011;66757;44.024;20.456;2023-04-16T01:59:16;35.13;;;18.67;;
66169;SDS011;66757;44.024;20.456;2023-04-16T02:01:41;35.63;;;17.33;;
66169;SDS011;66757;44.024;20.456;2023-04-16T02:04:07;35.05;;;18.30;;
66169;SDS011;66757;44.024;20.456;2023-04-16T02:06:33;31.25;;;17.60;;
66169;SDS011;66757;44.024;20.456;2023-04-16T02:08:59;29.38;;;16.55;;
66169;SDS011;66757;44.024;20.456;2023-04-16T02:11:24;27.92;;;14.88;;
66169;SDS011;66757;44.024;20.456;2023-04-16T02:13:51;25.10;;;14.52;;
66169;SDS011;66757;44.024;20.456;2023-04-16T02:16:16;21.17;;;12.55;;
66169;SDS011;66757;44.024;20.456;2023-04-16T02:18:42;23.85;;;14.77;;
66169;SDS011;66757;44.024;20.456;2023-04-16T02:21:07;22.85;;;14.57;;
66169;SDS011;66757;44.024;20.456;2023-04-16T02:23:32;23.10;;;12.70;;
66169;SDS011;66757;44.024;20.456;2023-04-16T02:25:58;22.98;;;13.05;;
66169;SDS011;66757;44.024;20.456;2023-04-16T02:28:23;25.33;;;13.23;;
66169;SDS011;66757;44.024;20.456;2023-04-16T02:30:48;27.80;;;13.68;;
66169;SDS011;66757;44.024;20.456;2023-04-16T02:33:14;26.10;;;13.75;;
66169;SDS011;66757;44.024;20.456;2023-04-16T02:35:39;27.98;;;13.75;;
66169;SDS011;66757;44.024;20.456;2023-04-16T02:38:04;22.52;;;12.63;;
66169;SDS011;66757;44.024;20.456;2023-04-16T02:40:30;29.88;;;13.30;;
66169;SDS011;66757;44.024;20.456;2023-04-16T02:42:56;22.63;;;12.75;;
66169;SDS011;66757;44.024;20.456;2023-04-16T02:45:22;24.90;;;11.68;;
66169;SDS011;66757;44.024;20.456;2023-04-16T02:47:48;21.10;;;10.05;;
66169;SDS011;66757;44.024;20.456;2023-04-16T02:50:13;17.75;;;10.13;;
66169;SDS011;66757;44.024;20.456;2023-04-16T02:52:39;21.30;;;10.02;;
66169;SDS011;66757;44.024;20.456;2023-04-16T02:55:04;18.10;;;10.35;;
66169;SDS011;66757;44.024;20.456;2023-04-16T02:57:31;17.02;;;9.63;;
66169;SDS011;66757;44.024;20.456;2023-04-16T02:59:56;22.35;;;11.27;;
66169;SDS011;66757;44.024;20.456;2023-04-16T03:02:22;19.67;;;9.90;;
66169;SDS011;66757;44.024;20.456;2023-04-16T03:04:47;18.83;;;10.10;;
66169;SDS011;66757;44.024;20.456;2023-04-16T03:07:13;22.65;;;10.07;;
66169;SDS011;66757;44.024;20.456;2023-04-16T03:09:39;21.48;;;10.27;;
66169;SDS011;66757;44.024;20.456;2023-04-16T03:12:04;19.50;;;11.18;;
66169;SDS011;66757;44.024;20.456;2023-04-16T03:14:30;20.50;;;10.93;;
66169;SDS011;66757;44.024;20.456;2023-04-16T03:16:55;21.92;;;11.05;;
66169;SDS011;66757;44.024;20.456;2023-04-16T03:19:20;20.52;;;10.80;;
66169;SDS011;66757;44.024;20.456;2023-04-16T03:21:46;23.15;;;13.13;;
66169;SDS011;66757;44.024;20.456;2023-04-16T03:24:11;26.98;;;15.38;;
66169;SDS011;66757;44.024;20.456;2023-04-16T03:26:37;27.58;;;15.68;;
66169;SDS011;66757;44.024;20.456;2023-04-16T03:29:03;28.27;;;14.95;;
66169;SDS011;66757;44.024;20.456;2023-04-16T03:31:28;28.80;;;12.90;;
66169;SDS011;66757;44.024;20.456;2023-04-16T03:33:54;27.70;;;16.23;;
66169;SDS011;66757;44.024;20.456;2023-04-16T03:36:20;40.80;;;18.30;;
66169;SDS011;66757;44.024;20.456;2023-04-16T03:38:46;40.40;;;20.83;;
66169;SDS011;66757;44.024;20.456;2023-04-16T03:44:03;33.58;;;18.40;;
66169;SDS011;66757;44.024;20.456;2023-04-16T03:46:29;33.15;;;16.73;;
66169;SDS011;66757;44.024;20.456;2023-04-16T03:48:55;30.40;;;16.98;;
66169;SDS011;66757;44.024;20.456;2023-04-16T03:51:20;33.78;;;17.67;;
66169;SDS011;66757;44.024;20.456;2023-04-16T03:53:45;35.10;;;18.48;;
66169;SDS011;66757;44.024;20.456;2023-04-16T03:56:10;35.75;;;19.38;;
66169;SDS011;66757;44.024;20.456;2023-04-16T03:58:36;31.60;;;17.90;;
66169;SDS011;66757;44.024;20.456;2023-04-16T04:01:01;32.95;;;17.52;;
66169;SDS011;66757;44.024;20.456;2023-04-16T04:03:26;40.38;;;19.33;;
66169;SDS011;66757;44.024;20.456;2023-04-16T04:08:43;33.50;;;18.52;;
66169;SDS011;66757;44.024;20.456;2023-04-16T04:11:08;37.58;;;19.17;;
66169;SDS011;66757;44.024;20.456;2023-04-16T04:13:34;35.97;;;18.90;;
66169;SDS011;66757;44.024;20.456;2023-04-16T04:15:59;30.48;;;17.10;;
66169;SDS011;66757;44.024;20.456;2023-04-16T04:18:24;31.98;;;17.00;;
66169;SDS011;66757;44.024;20.456;2023-04-16T04:20:51;29.30;;;14.32;;
66169;SDS011;66757;44.024;20.456;2023-04-16T04:23:16;29.65;;;13.13;;
66169;SDS011;66757;44.024;20.456;2023-04-16T04:28:34;23.67;;;12.40;;
66169;SDS011;66757;44.024;20.456;2023-04-16T04:30:59;25.27;;;13.57;;
66169;SDS011;66757;44.024;20.456;2023-04-16T04:33:25;25.77;;;13.02;;
66169;SDS011;66757;44.024;20.456;2023-04-16T04:35:53;22.95;;;11.73;;
66169;SDS011;66757;44.024;20.456;2023-04-16T04:38:19;30.73;;;16.27;;
66169;SDS011;66757;44.024;20.456;2023-04-16T04:40:49;26.52;;;14.82;;
66169;SDS011;66757;44.024;20.456;2023-04-16T04:43:14;29.58;;;14.50;;
66169;SDS011;66757;44.024;20.456;2023-04-16T04:45:39;23.90;;;13.48;;
66169;SDS011;66757;44.024;20.456;2023-04-16T04:48:05;28.92;;;13.10;;
66169;SDS011;66757;44.024;20.456;2023-04-16T04:50:30;19.85;;;11.75;;
66169;SDS011;66757;44.024;20.456;2023-04-16T04:52:56;20.30;;;11.43;;
66169;SDS011;66757;44.024;20.456;2023-04-16T04:55:21;16.08;;;7.55;;
66169;SDS011;66757;44.024;20.456;2023-04-16T04:57:47;13.82;;;8.10;;
66169;SDS011;66757;44.024;20.456;2023-04-16T05:00:12;14.55;;;7.30;;
66169;SDS011;66757;44.024;20.456;2023-04-16T05:02:38;15.43;;;7.47;;
66169;SDS011;66757;44.024;20.456;2023-04-16T05:05:03;16.35;;;8.15;;
66169;SDS011;66757;44.024;20.456;2023-04-16T05:07:29;19.25;;;8.30;;
66169;SDS011;66757;44.024;20.456;2023-04-16T05:09:55;27.67;;;14.48;;
66169;SDS011;66757;44.024;20.456;2023-04-16T05:12:20;30.50;;;16.35;;
66169;SDS011;66757;44.024;20.456;2023-04-16T05:14:46;31.33;;;15.73;;
66169;SDS011;66757;44.024;20.456;2023-04-16T05:17:12;27.52;;;16.42;;
66169;SDS011;66757;44.024;20.456;2023-04-16T05:19:37;22.05;;;14.18;;
66169;SDS011;66757;44.024;20.456;2023-04-16T05:22:02;24.92;;;14.88;;
66169;SDS011;66757;44.024;20.456;2023-04-16T05:24:29;22.42;;;14.57;;
66169;SDS011;66757;44.024;20.456;2023-04-16T05:26:55;24.35;;;13.02;;
66169;SDS011;66757;44.024;20.456;2023-04-16T05:29:21;22.88;;;13.13;;
66169;SDS011;66757;44.024;20.456;2023-04-16T05:31:47;23.20;;;13.82;;
66169;SDS011;66757;44.024;20.456;2023-04-16T05:34:14;23.17;;;12.80;;
66169;SDS011;66757;44.024;20.456;2023-04-16T05:36:39;30.88;;;16.23;;
66169;SDS011;66757;44.024;20.456;2023-04-16T05:39:04;25.90;;;14.82;;
66169;SDS011;66757;44.024;20.456;2023-04-16T05:41:31;27.83;;;15.48;;
66169;SDS011;66757;44.024;20.456;2023-04-16T05:43:58;27.27;;;14.88;;
66169;SDS011;66757;44.024;20.456;2023-04-16T05:46:23;25.13;;;14.05;;
66169;SDS011;66757;44.024;20.456;2023-04-16T05:48:48;21.48;;;13.48;;
66169;SDS011;66757;44.024;20.456;2023-04-16T05:51:15;21.55;;;13.80;;
66169;SDS011;66757;44.024;20.456;2023-04-16T05:53:40;22.00;;;11.90;;
66169;SDS011;66757;44.024;20.456;2023-04-16T05:56:06;19.52;;;12.00;;
66169;SDS011;66757;44.024;20.456;2023-04-16T05:58:31;21.40;;;11.68;;
66169;SDS011;66757;44.024;20.456;2023-04-16T06:00:56;17.42;;;11.25;;
66169;SDS011;66757;44.024;20.456;2023-04-16T06:03:22;16.75;;;10.10;;
66169;SDS011;66757;44.024;20.456;2023-04-16T06:05:47;22.58;;;11.05;;
66169;SDS011;66757;44.024;20.456;2023-04-16T06:08:17;20.83;;;11.63;;
66169;SDS011;66757;44.024;20.456;2023-04-16T06:10:44;27.33;;;12.52;;
66169;SDS011;66757;44.024;20.456;2023-04-16T06:13:10;26.15;;;14.13;;
66169;SDS011;66757;44.024;20.456;2023-04-16T06:15:35;29.05;;;17.90;;
66169;SDS011;66757;44.024;20.456;2023-04-16T06:18:00;25.00;;;15.02;;
66169;SDS011;66757;44.024;20.456;2023-04-16T06:20:25;22.58;;;13.02;;
66169;SDS011;66757;44.024;20.456;2023-04-16T06:22:51;23.38;;;13.38;;
66169;SDS011;66757;44.024;20.456;2023-04-16T06:25:16;24.73;;;14.32;;
66169;SDS011;66757;44.024;20.456;2023-04-16T06:27:43;33.38;;;20.27;;
66169;SDS011;66757;44.024;20.456;2023-04-16T06:30:12;41.30;;;25.70;;
66169;SDS011;66757;44.024;20.456;2023-04-16T06:32:38;35.22;;;22.98;;
66169;SDS011;66757;44.024;20.456;2023-04-16T06:35:05;40.70;;;26.23;;
66169;SDS011;66757;44.024;20.456;2023-04-16T06:37:30;48.17;;;28.15;;
66169;SDS011;66757;44.024;20.456;2023-04-16T06:39:57;65.00;;;38.40;;
66169;SDS011;66757;44.024;20.456;2023-04-16T06:42:23;37.40;;;22.13;;
66169;SDS011;66757;44.024;20.456;2023-04-16T06:44:48;32.50;;;20.10;;
66169;SDS011;66757;44.024;20.456;2023-04-16T06:47:14;38.63;;;21.90;;
66169;SDS011;66757;44.024;20.456;2023-04-16T06:49:39;34.10;;;20.55;;
66169;SDS011;66757;44.024;20.456;2023-04-16T06:52:05;44.20;;;24.70;;
66169;SDS011;66757;44.024;20.456;2023-04-16T06:54:30;36.30;;;21.85;;
66169;SDS011;66757;44.024;20.456;2023-04-16T06:56:55;40.67;;;23.88;;
66169;SDS011;66757;44.024;20.456;2023-04-16T06:59:21;40.38;;;25.70;;
66169;SDS011;66757;44.024;20.456;2023-04-16T07:01:46;37.42;;;21.90;;
66169;SDS011;66757;44.024;20.456;2023-04-16T07:04:11;41.42;;;22.40;;
66169;SDS011;66757;44.024;20.456;2023-04-16T07:06:36;41.15;;;24.48;;
66169;SDS011;66757;44.024;20.456;2023-04-16T07:09:02;28.23;;;18.65;;
66169;SDS011;66757;44.024;20.456;2023-04-16T07:11:27;46.95;;;28.27;;
66169;SDS011;66757;44.024;20.456;2023-04-16T07:13:53;37.45;;;23.42;;
66169;SDS011;66757;44.024;20.456;2023-04-16T07:16:19;38.55;;;23.40;;
66169;SDS011;66757;44.024;20.456;2023-04-16T07:18:44;37.22;;;22.00;;
66169;SDS011;66757;44.024;20.456;2023-04-16T07:21:10;27.13;;;15.57;;
66169;SDS011;66757;44.024;20.456;2023-04-16T07:23:35;21.67;;;10.93;;
66169;SDS011;66757;44.024;20.456;2023-04-16T07:26:00;22.60;;;11.80;;
66169;SDS011;66757;44.024;20.456;2023-04-16T07:28:26;27.40;;;17.15;;
66169;SDS011;66757;44.024;20.456;2023-04-16T07:30:51;35.08;;;17.77;;
66169;SDS011;66757;44.024;20.456;2023-04-16T07:33:16;29.65;;;17.00;;
66169;SDS011;66757;44.024;20.456;2023-04-16T07:35:43;54.15;;;30.60;;
66169;SDS011;66757;44.024;20.456;2023-04-16T07:38:09;106.53;;;59.42;;
66169;SDS011;66757;44.024;20.456;2023-04-16T07:40:35;86.78;;;48.13;;
66169;SDS011;66757;44.024;20.456;2023-04-16T07:43:00;73.97;;;42.40;;
66169;SDS011;66757;44.024;20.456;2023-04-16T07:45:25;71.40;;;39.10;;
66169;SDS011;66757;44.024;20.456;2023-04-16T07:47:51;53.95;;;31.70;;
66169;SDS011;66757;44.024;20.456;2023-04-16T07:50:16;58.90;;;32.15;;
66169;SDS011;66757;44.024;20.456;2023-04-16T07:52:43;49.38;;;28.38;;
66169;SDS011;66757;44.024;20.456;2023-04-16T07:55:09;50.60;;;29.95;;
66169;SDS011;66757;44.024;20.456;2023-04-16T07:57:34;46.75;;;27.88;;
66169;SDS011;66757;44.024;20.456;2023-04-16T08:00:01;41.33;;;24.55;;
66169;SDS011;66757;44.024;20.456;2023-04-16T08:02:29;30.58;;;18.75;;
66169;SDS011;66757;44.024;20.456;2023-04-16T08:04:54;28.63;;;17.75;;
66169;SDS011;66757;44.024;20.456;2023-04-16T08:07:19;32.63;;;19.08;;
66169;SDS011;66757;44.024;20.456;2023-04-16T08:09:52;32.03;;;19.67;;
66169;SDS011;66757;44.024;20.456;2023-04-16T08:12:18;21.42;;;13.45;;
66169;SDS011;66757;44.024;20.456;2023-04-16T08:14:44;19.55;;;13.73;;
66169;SDS011;66757;44.024;20.456;2023-04-16T08:17:16;17.98;;;10.70;;
66169;SDS011;66757;44.024;20.456;2023-04-16T08:19:43;15.13;;;8.02;;
66169;SDS011;66757;44.024;20.456;2023-04-16T08:22:09;15.98;;;9.15;;
66169;SDS011;66757;44.024;20.456;2023-04-16T08:24:35;11.02;;;7.05;;
66169;SDS011;66757;44.024;20.456;2023-04-16T08:27:00;9.00;;;2.78;;
66169;SDS011;66757;44.024;20.456;2023-04-16T08:29:26;6.32;;;3.55;;
66169;SDS011;66757;44.024;20.456;2023-04-16T08:31:52;5.22;;;2.38;;
66169;SDS011;66757;44.024;20.456;2023-04-16T08:34:18;7.20;;;2.50;;
66169;SDS011;66757;44.024;20.456;2023-04-16T08:36:43;11.77;;;6.47;;
66169;SDS011;66757;44.024;20.456;2023-04-16T08:39:10;4.50;;;1.67;;
66169;SDS011;66757;44.024;20.456;2023-04-16T08:41:35;4.68;;;1.48;;
66169;SDS011;66757;44.024;20.456;2023-04-16T08:44:06;2.47;;;1.52;;
66169;SDS011;66757;44.024;20.456;2023-04-16T08:46:32;2.13;;;1.13;;
66169;SDS011;66757;44.024;20.456;2023-04-16T08:49:00;9.00;;;1.30;;
66169;SDS011;66757;44.024;20.456;2023-04-16T08:51:27;3.63;;;0.77;;
66169;SDS011;66757;44.024;20.456;2023-04-16T08:53:58;5.32;;;0.80;;
66169;SDS011;66757;44.024;20.456;2023-04-16T08:56:24;4.57;;;1.10;;
66169;SDS011;66757;44.024;20.456;2023-04-16T08:58:50;2.90;;;0.40;;
66169;SDS011;66757;44.024;20.456;2023-04-16T09:01:16;2.15;;;0.40;;
66169;SDS011;66757;44.024;20.456;2023-04-16T09:03:43;3.17;;;1.27;;
66169;SDS011;66757;44.024;20.456;2023-04-16T09:06:10;2.45;;;0.77;;
66169;SDS011;66757;44.024;20.456;2023-04-16T09:08:36;3.45;;;0.52;;
66169;SDS011;66757;44.024;20.456;2023-04-16T09:11:02;3.60;;;0.45;;
66169;SDS011;66757;44.024;20.456;2023-04-16T09:13:27;3.17;;;0.98;;
66169;SDS011;66757;44.024;20.456;2023-04-16T09:15:53;5.38;;;1.73;;
66169;SDS011;66757;44.024;20.456;2023-04-16T09:18:18;5.25;;;1.05;;
66169;SDS011;66757;44.024;20.456;2023-04-16T09:20:51;6.30;;;3.42;;
66169;SDS011;66757;44.024;20.456;2023-04-16T09:23:16;6.43;;;1.73;;
66169;SDS011;66757;44.024;20.456;2023-04-16T09:25:41;4.82;;;1.65;;
66169;SDS011;66757;44.024;20.456;2023-04-16T09:28:08;4.07;;;1.52;;
66169;SDS011;66757;44.024;20.456;2023-04-16T09:30:33;4.88;;;2.17;;
66169;SDS011;66757;44.024;20.456;2023-04-16T09:33:18;4.55;;;2.08;;
66169;SDS011;66757;44.024;20.456;2023-04-16T09:35:50;4.15;;;1.90;;
66169;SDS011;66757;44.024;20.456;2023-04-16T09:38:16;5.93;;;2.33;;
66169;SDS011;66757;44.024;20.456;2023-04-16T09:40:41;5.15;;;1.65;;
66169;SDS011;66757;44.024;20.456;2023-04-16T09:43:10;5.07;;;1.30;;
66169;SDS011;66757;44.024;20.456;2023-04-16T09:45:53;5.18;;;1.80;;
66169;SDS011;66757;44.024;20.456;2023-04-16T09:48:28;3.25;;;1.25;;
66169;SDS011;66757;44.024;20.456;2023-04-16T09:50:54;2.95;;;1.13;;
66169;SDS011;66757;44.024;20.456;2023-04-16T09:53:23;4.95;;;2.38;;
66169;SDS011;66757;44.024;20.456;2023-04-16T09:55:49;2.50;;;1.00;;
66169;SDS011;66757;44.024;20.456;2023-04-16T09:58:17;1.95;;;0.68;;
66169;SDS011;66757;44.024;20.456;2023-04-16T10:00:42;2.50;;;1.20;;
66169;SDS011;66757;44.024;20.456;2023-04-16T10:03:08;3.20;;;0.88;;
66169;SDS011;66757;44.024;20.456;2023-04-16T10:05:33;3.50;;;0.98;;
66169;SDS011;66757;44.024;20.456;2023-04-16T10:08:00;2.33;;;0.90;;
66169;SDS011;66757;44.024;20.456;2023-04-16T10:10:26;3.80;;;1.20;;
66169;SDS011;66757;44.024;20.456;2023-04-16T10:12:53;4.78;;;1.95;;
66169;SDS011;66757;44.024;20.456;2023-04-16T10:15:19;5.90;;;0.90;;
66169;SDS011;66757;44.024;20.456;2023-04-16T10:17:44;5.00;;;0.90;;
66169;SDS011;66757;44.024;20.456;2023-04-16T10:20:10;3.20;;;0.55;;
66169;SDS011;66757;44.024;20.456;2023-04-16T10:22:35;2.33;;;1.13;;
66169;SDS011;66757;44.024;20.456;2023-04-16T10:25:01;2.38;;;0.82;;
66169;SDS011;66757;44.024;20.456;2023-04-16T10:30:16;2.50;;;0.50;;
66169;SDS011;66757;44.024;20.456;2023-04-16T10:32:44;1.20;;;0.40;;
66169;SDS011;66757;44.024;20.456;2023-04-16T10:35:13;4.32;;;1.20;;
66169;SDS011;66757;44.024;20.456;2023-04-16T10:37:39;17.70;;;10.38;;
66169;SDS011;66757;44.024;20.456;2023-04-16T10:40:24;65.20;;;39.92;;
66169;SDS011;66757;44.024;20.456;2023-04-16T10:42:56;2.85;;;1.77;;
66169;SDS011;66757;44.024;20.456;2023-04-16T10:45:36;5.03;;;2.80;;
66169;SDS011;66757;44.024;20.456;2023-04-16T10:48:08;7.45;;;3.67;;
66169;SDS011;66757;44.024;20.456;2023-04-16T10:50:34;3.40;;;2.05;;
66169;SDS011;66757;44.024;20.456;2023-04-16T10:53:16;3.38;;;1.75;;
66169;SDS011;66757;44.024;20.456;2023-04-16T10:55:52;4.45;;;1.38;;
66169;SDS011;66757;44.024;20.456;2023-04-16T10:58:30;1.75;;;0.50;;
66169;SDS011;66757;44.024;20.456;2023-04-16T11:01:14;3.00;;;1.15;;
66169;SDS011;66757;44.024;20.456;2023-04-16T11:03:45;13.82;;;7.03;;
66169;SDS011;66757;44.024;20.456;2023-04-16T11:06:11;3.85;;;2.45;;
66169;SDS011;66757;44.024;20.456;2023-04-16T11:08:38;5.97;;;3.67;;
66169;SDS011;66757;44.024;20.456;2023-04-16T11:11:04;9.20;;;4.72;;
66169;SDS011;66757;44.024;20.456;2023-04-16T11:13:30;8.68;;;4.45;;
66169;SDS011;66757;44.024;20.456;2023-04-16T11:15:56;12.40;;;8.07;;
66169;SDS011;66757;44.024;20.456;2023-04-16T11:18:22;5.63;;;3.25;;
66169;SDS011;66757;44.024;20.456;2023-04-16T11:20:47;11.02;;;5.22;;
66169;SDS011;66757;44.024;20.456;2023-04-16T11:23:12;8.07;;;3.38;;
66169;SDS011;66757;44.024;20.456;2023-04-16T11:25:37;3.83;;;2.35;;
66169;SDS011;66757;44.024;20.456;2023-04-16T11:28:03;11.48;;;3.10;;
66169;SDS011;66757;44.024;20.456;2023-04-16T11:30:30;8.18;;;5.32;;
66169;SDS011;66757;44.024;20.456;2023-04-16T11:32:55;10.95;;;6.03;;
66169;SDS011;66757;44.024;20.456;2023-04-16T11:35:21;12.23;;;5.63;;
66169;SDS011;66757;44.024;20.456;2023-04-16T11:37:46;11.40;;;4.68;;
66169;SDS011;66757;44.024;20.456;2023-04-16T11:40:14;15.65;;;7.20;;
66169;SDS011;66757;44.024;20.456;2023-04-16T11:42:40;11.93;;;7.63;;
66169;SDS011;66757;44.024;20.456;2023-04-16T11:45:07;12.90;;;6.60;;
66169;SDS011;66757;44.024;20.456;2023-04-16T11:50:18;6.35;;;4.53;;
66169;SDS011;66757;44.024;20.456;2023-04-16T11:52:44;17.65;;;8.18;;
66169;SDS011;66757;44.024;20.456;2023-04-16T11:55:09;8.13;;;4.03;;
66169;SDS011;66757;44.024;20.456;2023-04-16T11:57:35;9.27;;;4.20;;
66169;SDS011;66757;44.024;20.456;2023-04-16T12:00:02;9.60;;;4.60;;
66169;SDS011;66757;44.024;20.456;2023-04-16T12:02:39;14.43;;;8.70;;
66169;SDS011;66757;44.024;20.456;2023-04-16T12:05:27;13.48;;;6.72;;
66169;SDS011;66757;44.024;20.456;2023-04-16T12:07:54;7.63;;;4.18;;
66169;SDS011;66757;44.024;20.456;2023-04-16T12:10:21;11.05;;;3.92;;
66169;SDS011;66757;44.024;20.456;2023-04-16T12:12:46;5.20;;;2.83;;
66169;SDS011;66757;44.024;20.456;2023-04-16T12:15:12;6.80;;;2.63;;
66169;SDS011;66757;44.024;20.456;2023-04-16T12:17:37;7.03;;;3.50;;
66169;SDS011;66757;44.024;20.456;2023-04-16T12:20:08;6.88;;;3.42;;
66169;SDS011;66757;44.024;20.456;2023-04-16T12:22:35;8.02;;;4.50;;
66169;SDS011;66757;44.024;20.456;2023-04-16T12:25:01;21.10;;;9.70;;
66169;SDS011;66757;44.024;20.456;2023-04-16T12:27:44;8.40;;;4.68;;
66169;SDS011;66757;44.024;20.456;2023-04-16T12:30:13;18.55;;;8.73;;
66169;SDS011;66757;44.024;20.456;2023-04-16T12:32:42;11.18;;;5.43;;
66169;SDS011;66757;44.024;20.456;2023-04-16T12:35:11;17.67;;;10.85;;
66169;SDS011;66757;44.024;20.456;2023-04-16T12:37:36;17.45;;;10.10;;
66169;SDS011;66757;44.024;20.456;2023-04-16T12:40:03;10.52;;;6.50;;
66169;SDS011;66757;44.024;20.456;2023-04-16T12:42:30;12.60;;;6.25;;
66169;SDS011;66757;44.024;20.456;2023-04-16T12:45:00;11.80;;;7.65;;
66169;SDS011;66757;44.024;20.456;2023-04-16T12:47:26;16.80;;;9.75;;
66169;SDS011;66757;44.024;20.456;2023-04-16T12:49:51;28.48;;;15.27;;
66169;SDS011;66757;44.024;20.456;2023-04-16T12:52:16;27.55;;;15.93;;
66169;SDS011;66757;44.024;20.456;2023-04-16T12:54:41;20.30;;;11.15;;
66169;SDS011;66757;44.024;20.456;2023-04-16T12:57:07;14.07;;;9.02;;
66169;SDS011;66757;44.024;20.456;2023-04-16T12:59:32;15.30;;;7.57;;
66169;SDS011;66757;44.024;20.456;2023-04-16T13:01:59;26.35;;;13.30;;
66169;SDS011;66757;44.024;20.456;2023-04-16T13:04:25;14.02;;;9.50;;
66169;SDS011;66757;44.024;20.456;2023-04-16T13:06:50;17.00;;;10.07;;
66169;SDS011;66757;44.024;20.456;2023-04-16T13:09:16;8.20;;;4.78;;
66169;SDS011;66757;44.024;20.456;2023-04-16T13:11:42;4.25;;;1.30;;
66169;SDS011;66757;44.024;20.456;2023-04-16T13:14:07;6.65;;;3.42;;
66169;SDS011;66757;44.024;20.456;2023-04-16T13:16:32;5.22;;;2.38;;
66169;SDS011;66757;44.024;20.456;2023-04-16T13:18:58;6.40;;;2.28;;
66169;SDS011;66757;44.024;20.456;2023-04-16T13:21:23;5.63;;;1.75;;
66169;SDS011;66757;44.024;20.456;2023-04-16T13:23:50;3.72;;;1.88;;
66169;SDS011;66757;44.024;20.456;2023-04-16T13:26:15;3.35;;;1.23;;
66169;SDS011;66757;44.024;20.456;2023-04-16T13:28:41;3.85;;;1.13;;
66169;SDS011;66757;44.024;20.456;2023-04-16T13:31:07;4.63;;;1.50;;
66169;SDS011;66757;44.024;20.456;2023-04-16T13:33:33;6.03;;;3.17;;
66169;SDS011;66757;44.024;20.456;2023-04-16T13:35:58;3.70;;;1.58;;
66169;SDS011;66757;44.024;20.456;2023-04-16T13:38:23;2.38;;;0.90;;
66169;SDS011;66757;44.024;20.456;2023-04-16T13:40:49;2.53;;;0.90;;
66169;SDS011;66757;44.024;20.456;2023-04-16T13:43:14;1.90;;;1.10;;
66169;SDS011;66757;44.024;20.456;2023-04-16T13:45:42;3.92;;;1.63;;
66169;SDS011;66757;44.024;20.456;2023-04-16T13:48:08;4.72;;;1.83;;
66169;SDS011;66757;44.024;20.456;2023-04-16T13:50:33;3.08;;;1.88;;
66169;SDS011;66757;44.024;20.456;2023-04-16T13:52:59;5.10;;;1.80;;
66169;SDS011;66757;44.024;20.456;2023-04-16T13:55:25;4.55;;;2.58;;
66169;SDS011;66757;44.024;20.456;2023-04-16T13:57:50;6.72;;;3.53;;
66169;SDS011;66757;44.024;20.456;2023-04-16T14:00:17;9.25;;;6.18;;
66169;SDS011;66757;44.024;20.456;2023-04-16T14:02:43;7.72;;;4.22;;
66169;SDS011;66757;44.024;20.456;2023-04-16T14:05:09;6.97;;;4.00;;
66169;SDS011;66757;44.024;20.456;2023-04-16T14:07:35;6.00;;;3.28;;
66169;SDS011;66757;44.024;20.456;2023-04-16T14:10:02;8.25;;;6.05;;
66169;SDS011;66757;44.024;20.456;2023-04-16T14:12:27;5.38;;;3.10;;
66169;SDS011;66757;44.024;20.456;2023-04-16T14:14:53;6.53;;;4.30;;
66169;SDS011;66757;44.024;20.456;2023-04-16T14:17:18;6.25;;;3.05;;
66169;SDS011;66757;44.024;20.456;2023-04-16T14:19:43;6.90;;;4.60;;
66169;SDS011;66757;44.024;20.456;2023-04-16T14:22:10;6.18;;;2.90;;
66169;SDS011;66757;44.024;20.456;2023-04-16T14:24:35;19.83;;;13.52;;
66169;SDS011;66757;44.024;20.456;2023-04-16T14:27:00;6.22;;;4.97;;